createdAt,value
2019-02-06T00:00:56.895Z,2.90
2019-02-06T00:03:22.919Z,2.80
2019-02-06T00:05:48.986Z,2.70
2019-02-06T00:08:15.040Z,2.70
2019-02-06T00:10:41.865Z,2.70
2019-02-06T00:13:07.946Z,2.70
2019-02-06T00:15:33.990Z,2.80
2019-02-06T00:18:00.031Z,2.90
2019-02-06T00:20:26.072Z,2.90
2019-02-06T00:22:52.104Z,3.10
2019-02-06T00:25:18.148Z,3.10
2019-02-06T00:27:44.184Z,3.10
2019-02-06T00:30:11.196Z,3.10
2019-02-06T00:32:37.991Z,3.10
2019-02-06T00:35:04.014Z,3.10
2019-02-06T00:37:30.045Z,3.20
2019-02-06T00:39:56.107Z,3.10
2019-02-06T00:42:22.890Z,3.00
2019-02-06T00:44:48.916Z,3.00
2019-02-06T00:47:14.967Z,2.80
2019-02-06T00:49:41.020Z,2.80
2019-02-06T00:52:07.056Z,2.70
2019-02-06T00:54:33.826Z,2.80
2019-02-06T00:56:59.863Z,2.80
2019-02-06T00:59:27.080Z,2.80
2019-02-06T01:01:53.867Z,2.80
2019-02-06T01:04:19.928Z,2.80
2019-02-06T01:06:45.975Z,2.80
2019-02-06T01:09:12.788Z,2.70
2019-02-06T01:11:38.840Z,2.70
2019-02-06T01:14:05.682Z,2.70
2019-02-06T01:16:32.443Z,2.60
2019-02-06T01:18:58.467Z,2.60
2019-02-06T01:21:24.518Z,2.60
2019-02-06T01:23:50.519Z,2.60
2019-02-06T01:26:16.566Z,2.60
2019-02-06T01:28:42.614Z,2.60
2019-02-06T01:31:08.659Z,2.50
2019-02-06T01:33:34.679Z,2.50
2019-02-06T01:36:00.734Z,2.50
2019-02-06T01:38:26.763Z,2.50
2019-02-06T01:40:52.783Z,2.50
2019-02-06T01:43:18.807Z,2.50
2019-02-06T01:45:44.846Z,2.50
2019-02-06T01:48:10.875Z,2.50
2019-02-06T01:50:36.895Z,2.40
2019-02-06T01:53:02.937Z,2.30
2019-02-06T01:55:28.959Z,2.30
2019-02-06T01:57:55.018Z,2.30
2019-02-06T02:00:22.192Z,2.30
2019-02-06T02:02:48.955Z,2.30
2019-02-06T02:05:14.990Z,2.30
2019-02-06T02:07:41.018Z,2.30
2019-02-06T02:10:07.117Z,2.30
2019-02-06T02:12:33.138Z,2.10
2019-02-06T02:14:59.178Z,2.10
2019-02-06T02:17:25.194Z,2.10
2019-02-06T02:19:51.215Z,2.20
2019-02-06T02:22:17.294Z,2.10
2019-02-06T02:24:43.325Z,2.20
2019-02-06T02:27:09.378Z,2.10
2019-02-06T02:29:43.062Z,2.20
2019-02-06T02:32:09.941Z,2.10
2019-02-06T02:34:36.100Z,2.10
2019-02-06T02:37:02.160Z,2.10
2019-02-06T02:39:28.184Z,2.00
2019-02-06T02:41:54.987Z,2.00
2019-02-06T02:44:21.031Z,2.00
2019-02-06T02:46:47.071Z,2.10
2019-02-06T02:49:13.861Z,2.10
2019-02-06T02:51:39.884Z,2.00
2019-02-06T02:54:05.956Z,2.10
2019-02-06T02:56:31.986Z,2.00
2019-02-06T02:58:58.025Z,1.80
2019-02-06T03:01:26.652Z,1.60
2019-02-06T03:03:53.449Z,1.60
2019-02-06T03:06:28.289Z,1.30
2019-02-06T03:08:46.270Z,1.30
2019-02-06T03:11:12.323Z,1.40
2019-02-06T03:13:38.352Z,1.50
2019-02-06T03:16:05.204Z,1.70
2019-02-06T03:18:31.228Z,1.70
2019-02-06T03:20:57.988Z,1.80
2019-02-06T03:23:24.025Z,1.80
2019-02-06T03:25:50.044Z,1.80
2019-02-06T03:28:16.079Z,1.80
2019-02-06T03:30:42.130Z,1.60
2019-02-06T03:33:08.145Z,1.50
2019-02-06T03:35:34.168Z,1.50
2019-02-06T03:38:00.202Z,1.40
2019-02-06T03:40:26.351Z,1.50
2019-02-06T03:42:53.025Z,1.70
2019-02-06T03:45:19.044Z,1.60
2019-02-06T03:47:45.071Z,1.60
2019-02-06T03:50:11.080Z,1.60
2019-02-06T03:52:37.105Z,1.70
2019-02-06T03:55:03.133Z,1.60
2019-02-06T03:57:29.144Z,1.70
2019-02-06T03:59:55.199Z,1.70
2019-02-06T04:02:21.668Z,1.80
2019-02-06T04:04:47.698Z,1.80
2019-02-06T04:07:13.723Z,1.80
2019-02-06T04:09:39.743Z,1.60
2019-02-06T04:12:05.760Z,1.50
2019-02-06T04:14:31.787Z,1.40
2019-02-06T04:16:57.845Z,1.50
2019-02-06T04:19:24.612Z,1.50
2019-02-06T04:21:50.649Z,1.50
2019-02-06T04:24:16.661Z,1.60
2019-02-06T04:26:42.684Z,1.60
2019-02-06T04:29:08.828Z,1.60
2019-02-06T04:31:35.647Z,1.60
2019-02-06T04:34:01.667Z,1.60
2019-02-06T04:36:27.684Z,1.40
2019-02-06T04:38:53.695Z,1.40
2019-02-06T04:41:20.454Z,1.50
2019-02-06T04:43:46.471Z,1.50
2019-02-06T04:46:12.487Z,1.50
2019-02-06T04:48:38.506Z,1.50
2019-02-06T04:51:04.515Z,1.50
2019-02-06T04:53:30.538Z,1.50
2019-02-06T04:55:56.550Z,1.50
2019-02-06T04:58:22.568Z,1.40
2019-02-06T05:00:49.357Z,1.40
2019-02-06T05:03:15.447Z,1.40
2019-02-06T05:05:41.466Z,1.50
2019-02-06T05:08:07.479Z,1.40
2019-02-06T05:10:33.493Z,1.40
2019-02-06T05:12:59.540Z,1.40
2019-02-06T05:15:26.300Z,1.40
2019-02-06T05:17:55.798Z,1.40
2019-02-06T05:20:38.890Z,1.40
2019-02-06T05:23:04.904Z,1.30
2019-02-06T05:25:30.915Z,1.20
2019-02-06T05:27:56.936Z,1.10
2019-02-06T05:30:22.952Z,1.10
2019-02-06T05:32:48.962Z,1.20
2019-02-06T05:35:14.979Z,1.20
2019-02-06T05:37:41.021Z,1.20
2019-02-06T05:40:07.038Z,1.30
2019-02-06T05:42:33.062Z,1.30
2019-02-06T05:44:59.076Z,1.20
2019-02-06T05:47:25.812Z,1.20
2019-02-06T05:49:52.607Z,1.30
2019-02-06T05:52:18.623Z,1.30
2019-02-06T05:54:44.646Z,1.30
2019-02-06T05:57:10.656Z,1.30
2019-02-06T05:59:36.680Z,1.20
2019-02-06T06:02:02.731Z,1.20
2019-02-06T06:04:29.892Z,1.10
2019-02-06T06:06:55.907Z,1.10
2019-02-06T06:09:21.934Z,1.00
2019-02-06T06:11:47.955Z,1.00
2019-02-06T06:14:15.692Z,1.00
2019-02-06T06:16:42.449Z,1.00
2019-02-06T06:19:08.493Z,1.10
2019-02-06T06:21:34.603Z,1.10
2019-02-06T06:24:00.625Z,1.10
2019-02-06T06:26:26.758Z,1.20
2019-02-06T06:28:52.877Z,1.20
2019-02-06T06:31:18.904Z,1.30
2019-02-06T06:33:45.185Z,1.20
2019-02-06T06:36:11.995Z,1.20
2019-02-06T06:38:40.536Z,1.20
2019-02-06T06:41:06.576Z,1.20
2019-02-06T06:43:32.580Z,1.20
2019-02-06T06:45:58.590Z,1.30
2019-02-06T06:48:24.611Z,1.20
2019-02-06T06:50:50.634Z,1.20
2019-02-06T06:53:16.650Z,1.10
2019-02-06T06:55:43.428Z,1.10
2019-02-06T06:58:09.456Z,1.10
2019-02-06T07:00:35.471Z,1.10
2019-02-06T07:03:01.804Z,1.00
2019-02-06T07:05:28.277Z,1.10
2019-02-06T07:07:54.289Z,1.30
2019-02-06T07:10:20.315Z,1.30
2019-02-06T07:12:46.323Z,1.30
2019-02-06T07:15:15.215Z,1.30
2019-02-06T07:17:41.254Z,1.30
2019-02-06T07:20:07.279Z,1.50
2019-02-06T07:22:33.279Z,1.50
2019-02-06T07:24:59.306Z,1.60
2019-02-06T07:27:25.324Z,1.60
2019-02-06T07:29:51.349Z,1.60
2019-02-06T07:32:17.359Z,1.50
2019-02-06T07:34:43.391Z,1.70
2019-02-06T07:37:09.416Z,1.80
2019-02-06T07:39:35.441Z,2.00
2019-02-06T07:42:01.446Z,2.00
2019-02-06T07:44:27.479Z,1.90
2019-02-06T07:46:53.507Z,1.90
2019-02-06T07:49:19.532Z,2.10
2019-02-06T07:51:45.567Z,2.10
2019-02-06T07:54:11.592Z,1.90
2019-02-06T07:56:37.608Z,1.90
2019-02-06T07:59:03.623Z,2.00
2019-02-06T08:01:29.637Z,1.90
2019-02-06T08:03:55.666Z,2.10
2019-02-06T08:06:22.659Z,2.30
2019-02-06T08:08:48.674Z,2.60
2019-02-06T08:11:14.731Z,2.80
2019-02-06T08:13:40.768Z,2.70
2019-02-06T08:16:07.441Z,2.10
2019-02-06T08:18:32.842Z,2.30
2019-02-06T08:20:58.858Z,2.50
2019-02-06T08:23:24.880Z,3.10
2019-02-06T08:25:50.899Z,3.20
2019-02-06T08:28:16.934Z,3.70
2019-02-06T08:30:42.947Z,4.00
2019-02-06T08:33:08.978Z,4.30
2019-02-06T08:35:35.023Z,4.30
2019-02-06T08:38:01.081Z,4.30
2019-02-06T08:40:27.119Z,4.40
2019-02-06T08:42:53.146Z,4.50
2019-02-06T08:45:19.223Z,4.40
2019-02-06T08:47:45.250Z,4.30
2019-02-06T08:50:12.159Z,4.60
2019-02-06T08:52:38.155Z,4.80
2019-02-06T08:55:04.176Z,4.60
2019-02-06T08:57:30.183Z,4.30
2019-02-06T08:59:56.203Z,4.40
2019-02-06T09:02:22.227Z,4.40
2019-02-06T09:04:55.418Z,4.60
2019-02-06T09:07:15.511Z,4.90
2019-02-06T09:09:43.511Z,5.20
2019-02-06T09:12:07.526Z,5.40
2019-02-06T09:14:33.542Z,5.40
2019-02-06T09:16:59.547Z,5.50
2019-02-06T09:19:25.568Z,5.90
2019-02-06T09:21:51.584Z,6.40
2019-02-06T09:24:17.612Z,6.80
2019-02-06T09:26:43.632Z,7.10
2019-02-06T09:29:09.651Z,7.50
2019-02-06T09:31:36.409Z,8.40
2019-02-06T09:34:02.451Z,8.30
2019-02-06T09:36:28.472Z,8.20
2019-02-06T09:38:54.500Z,8.70
2019-02-06T09:41:20.535Z,8.30
2019-02-06T09:43:46.560Z,8.00
2019-02-06T09:46:12.570Z,7.90
2019-02-06T09:48:38.580Z,6.70
2019-02-06T09:51:04.603Z,6.50
2019-02-06T09:53:30.617Z,6.80
2019-02-06T09:55:56.626Z,6.40
2019-02-06T09:58:30.415Z,6.50
2019-02-06T10:00:56.431Z,6.50
2019-02-06T10:03:22.445Z,6.20
2019-02-06T10:05:48.484Z,6.30
2019-02-06T10:08:16.447Z,6.10
2019-02-06T10:10:42.459Z,6.00
2019-02-06T10:13:08.481Z,5.40
2019-02-06T10:15:44.056Z,5.40
2019-02-06T10:18:11.759Z,5.40
2019-02-06T10:20:38.773Z,5.50
2019-02-06T10:23:05.528Z,6.20
2019-02-06T10:25:31.576Z,6.20
2019-02-06T10:30:31.511Z,6.00
2019-02-06T10:32:57.564Z,5.70
2019-02-06T10:35:23.616Z,5.80
2019-02-06T10:37:49.642Z,6.00
2019-02-06T10:40:16.401Z,6.40
2019-02-06T10:42:43.180Z,6.90
2019-02-06T10:45:09.200Z,6.90
2019-02-06T10:47:35.244Z,7.00
2019-02-06T10:50:01.294Z,7.30
2019-02-06T10:52:27.332Z,7.50
2019-02-06T10:54:53.369Z,7.30
2019-02-06T10:57:19.390Z,7.90
2019-02-06T10:59:45.455Z,8.00
2019-02-06T11:02:11.480Z,7.90
2019-02-06T11:04:37.572Z,8.10
2019-02-06T11:07:03.607Z,7.70
2019-02-06T11:09:29.703Z,8.30
2019-02-06T11:11:56.475Z,7.80
2019-02-06T11:14:22.507Z,7.80
2019-02-06T11:16:48.530Z,8.60
2019-02-06T11:19:14.539Z,8.90
2019-02-06T11:21:40.555Z,9.30
2019-02-06T11:24:06.578Z,9.50
2019-02-06T11:26:32.651Z,9.80
2019-02-06T11:28:58.667Z,9.80
2019-02-06T11:31:24.694Z,9.90
2019-02-06T11:33:50.708Z,10.20
2019-02-06T11:36:23.831Z,10.00
2019-02-06T11:38:42.777Z,10.10
2019-02-06T11:41:08.787Z,10.30
2019-02-06T11:43:35.652Z,10.00
2019-02-06T11:46:01.678Z,9.80
2019-02-06T11:48:27.737Z,10.00
2019-02-06T11:50:53.804Z,10.20
2019-02-06T11:53:19.846Z,10.30
2019-02-06T11:55:45.842Z,10.10
2019-02-06T11:58:11.869Z,10.20
2019-02-06T12:00:37.904Z,10.10
2019-02-06T12:03:03.914Z,10.10
2019-02-06T12:05:29.932Z,10.00
2019-02-06T12:07:55.976Z,10.00
2019-02-06T12:10:22.795Z,10.00
2019-02-06T12:12:48.810Z,9.90
2019-02-06T12:15:15.787Z,9.80
2019-02-06T12:17:41.815Z,9.90
2019-02-06T12:20:13.604Z,10.00
2019-02-06T12:22:39.611Z,10.00
2019-02-06T12:25:05.626Z,9.90
2019-02-06T12:27:31.638Z,9.20
2019-02-06T12:29:57.652Z,9.50
2019-02-06T12:32:23.679Z,9.80
2019-02-06T12:34:49.691Z,10.00
2019-02-06T12:37:15.742Z,10.20
2019-02-06T12:39:41.791Z,10.20
2019-02-06T12:42:07.814Z,10.20
2019-02-06T12:44:34.607Z,10.40
2019-02-06T12:47:00.641Z,10.30
2019-02-06T12:49:26.678Z,10.50
2019-02-06T12:51:52.742Z,10.50
2019-02-06T12:54:18.723Z,10.60
2019-02-06T12:56:44.744Z,10.60
2019-02-06T12:59:10.784Z,10.70
2019-02-06T13:01:36.827Z,10.90
2019-02-06T13:04:03.599Z,10.80
2019-02-06T13:06:29.640Z,10.80
2019-02-06T13:08:55.654Z,10.90
2019-02-06T13:11:22.558Z,11.00
2019-02-06T13:13:49.336Z,11.10
2019-02-06T13:16:22.199Z,11.10
2019-02-06T13:18:48.971Z,11.00
2019-02-06T13:21:14.985Z,11.00
2019-02-06T13:23:41.021Z,11.00
2019-02-06T13:26:07.042Z,11.00
2019-02-06T13:28:33.091Z,10.90
2019-02-06T13:30:59.103Z,10.90
2019-02-06T13:33:25.167Z,10.90
2019-02-06T13:35:51.935Z,11.30
2019-02-06T13:38:17.969Z,11.30
2019-02-06T13:40:46.065Z,11.30
2019-02-06T13:43:10.039Z,11.30
2019-02-06T13:45:38.206Z,11.30
2019-02-06T13:48:04.158Z,11.30
2019-02-06T13:50:30.192Z,11.30
2019-02-06T13:52:56.219Z,11.30
2019-02-06T13:55:22.251Z,11.30
2019-02-06T13:57:49.046Z,11.10
2019-02-06T14:00:21.007Z,11.10
2019-02-06T14:02:47.043Z,11.00
2019-02-06T14:05:13.091Z,10.90
2019-02-06T14:07:39.120Z,10.90
2019-02-06T14:10:05.927Z,10.80
2019-02-06T14:12:32.796Z,10.80
2019-02-06T14:14:59.723Z,10.80
2019-02-06T14:17:25.868Z,10.70
2019-02-06T14:19:51.948Z,10.50
2019-02-06T14:22:17.984Z,10.50
2019-02-06T14:24:44.171Z,10.40
2019-02-06T14:27:11.101Z,10.40
2019-02-06T14:29:44.143Z,10.40
2019-02-06T14:32:18.274Z,10.40
2019-02-06T14:34:47.335Z,10.40
2019-02-06T14:37:27.805Z,10.40
2019-02-06T14:39:57.529Z,10.40
2019-02-06T14:42:41.541Z,10.40
2019-02-06T14:45:31.715Z,10.50
2019-02-06T14:48:04.592Z,10.50
2019-02-06T14:50:31.523Z,10.50
2019-02-06T14:53:11.434Z,10.60
2019-02-06T14:55:56.417Z,10.60
2019-02-06T14:58:34.940Z,10.60
2019-02-06T15:01:21.947Z,10.50
2019-02-06T15:04:05.928Z,10.40
2019-02-06T15:06:52.924Z,10.20
2019-02-06T15:09:37.761Z,10.20
2019-02-06T15:12:11.003Z,10.30
2019-02-06T15:14:41.145Z,10.30
2019-02-06T15:17:17.110Z,10.20
2019-02-06T15:19:49.939Z,10.00
2019-02-06T15:22:39.759Z,10.00
2019-02-06T15:25:26.683Z,9.60
2019-02-06T15:28:06.632Z,9.10
2019-02-06T15:30:53.163Z,9.10
2019-02-06T15:33:35.056Z,9.00
2019-02-06T15:36:06.975Z,8.80
2019-02-06T15:38:39.659Z,8.50
2019-02-06T15:41:07.285Z,8.40
2019-02-06T15:43:41.285Z,8.30
2019-02-06T15:46:29.234Z,8.10
2019-02-06T15:49:02.294Z,8.00
2019-02-06T15:52:01.215Z,7.90
2019-02-06T15:54:44.422Z,8.00
2019-02-06T15:57:35.387Z,8.10
2019-02-06T16:00:17.659Z,8.10
2019-02-06T16:03:00.595Z,8.00
2019-02-06T16:05:29.584Z,8.10
2019-02-06T16:08:02.875Z,7.90
2019-02-06T16:10:51.822Z,7.90
2019-02-06T16:13:34.635Z,7.70
2019-02-06T16:16:18.931Z,7.60
2019-02-06T16:19:01.909Z,7.50
2019-02-06T16:21:53.261Z,7.50
2019-02-06T16:24:19.528Z,7.40
2019-02-06T16:27:07.490Z,7.40
2019-02-06T16:29:40.627Z,7.30
2019-02-06T16:32:09.703Z,7.20
2019-02-06T16:34:48.707Z,7.20
2019-02-06T16:37:27.663Z,7.10
2019-02-06T16:40:07.669Z,7.00
2019-02-06T16:42:41.851Z,6.90
2019-02-06T16:45:24.491Z,6.70
2019-02-06T16:47:56.434Z,6.60
2019-02-06T16:50:27.414Z,6.40
2019-02-06T16:53:10.875Z,6.40
2019-02-06T16:59:02.903Z,6.30
2019-02-06T17:01:43.939Z,6.20
2019-02-06T17:04:37.266Z,6.00
2019-02-06T17:07:14.751Z,6.00
2019-02-06T17:09:42.775Z,5.90
2019-02-06T17:12:30.819Z,5.90
2019-02-06T17:15:21.206Z,5.80
2019-02-06T17:17:50.653Z,5.70
2019-02-06T17:20:34.702Z,5.50
2019-02-06T17:23:38.686Z,5.50
2019-02-06T17:26:28.117Z,5.50
2019-02-06T17:28:56.847Z,5.40
2019-02-06T17:31:31.361Z,5.30
2019-02-06T17:34:13.296Z,5.30
2019-02-06T17:36:43.243Z,5.20
2019-02-06T17:39:23.853Z,5.10
2019-02-06T17:41:49.151Z,5.10
2019-02-06T17:44:30.233Z,5.00
2019-02-06T17:47:12.291Z,5.00
2019-02-06T17:50:02.466Z,5.00
2019-02-06T17:52:34.767Z,4.90
2019-02-06T17:55:07.870Z,4.70
2019-02-06T17:57:33.965Z,4.60
2019-02-06T18:00:00.811Z,4.40
2019-02-06T18:02:27.615Z,4.40
2019-02-06T18:04:53.682Z,4.40
2019-02-06T18:07:22.741Z,4.50
2019-02-06T18:09:48.746Z,4.50
2019-02-06T18:12:14.790Z,4.40
2019-02-06T18:14:40.812Z,4.30
2019-02-06T18:17:06.907Z,4.20
2019-02-06T18:19:34.749Z,4.10
2019-02-06T18:22:01.571Z,3.90
2019-02-06T18:24:27.798Z,3.90
2019-02-06T18:26:54.018Z,3.90
2019-02-06T18:29:20.276Z,3.80
2019-02-06T18:31:46.410Z,3.60
2019-02-06T18:34:12.506Z,3.80
2019-02-06T18:36:39.323Z,4.00
2019-02-06T18:39:05.382Z,4.00
2019-02-06T18:41:31.417Z,4.10
2019-02-06T18:43:57.574Z,4.10
2019-02-06T18:46:23.506Z,4.20
2019-02-06T18:48:49.567Z,4.10
2019-02-06T18:51:15.615Z,4.10
2019-02-06T18:53:41.728Z,4.10
2019-02-06T18:56:07.753Z,4.00
2019-02-06T18:58:33.782Z,4.00
2019-02-06T19:00:59.968Z,4.00
2019-02-06T19:03:28.903Z,4.00
2019-02-06T19:05:54.931Z,4.00
2019-02-06T19:08:21.014Z,3.90
2019-02-06T19:10:59.168Z,3.90
2019-02-06T19:13:29.020Z,3.80
2019-02-06T19:15:56.699Z,3.50
2019-02-06T19:18:21.118Z,3.50
2019-02-06T19:20:48.054Z,3.60
2019-02-06T19:23:14.185Z,3.60
2019-02-06T19:25:40.221Z,3.60
2019-02-06T19:28:06.285Z,3.60
2019-02-06T19:30:33.259Z,3.50
2019-02-06T19:32:59.327Z,3.40
2019-02-06T19:35:25.339Z,3.30
2019-02-06T19:37:51.362Z,3.20
2019-02-06T19:40:17.383Z,2.90
2019-02-06T19:42:43.439Z,3.00
2019-02-06T19:45:09.656Z,3.00
2019-02-06T19:47:35.706Z,3.10
2019-02-06T19:50:01.723Z,2.90
2019-02-06T19:52:27.797Z,3.00
2019-02-06T19:54:53.832Z,3.10
2019-02-06T19:57:19.863Z,3.00
2019-02-06T19:59:45.903Z,3.10
2019-02-06T20:02:11.976Z,3.10
2019-02-06T20:04:38.166Z,3.20
2019-02-06T20:07:04.263Z,3.20
2019-02-06T20:09:30.499Z,3.30
2019-02-06T20:11:56.615Z,3.40
2019-02-06T20:14:22.673Z,3.40
2019-02-06T20:16:48.797Z,3.30
2019-02-06T20:19:14.833Z,3.30
2019-02-06T20:21:42.156Z,3.20
2019-02-06T20:24:08.689Z,3.10
2019-02-06T20:26:34.871Z,3.10
2019-02-06T20:29:01.060Z,3.10
2019-02-06T20:31:27.349Z,3.00
2019-02-06T20:33:54.295Z,2.90
2019-02-06T20:36:20.473Z,2.90
2019-02-06T20:38:46.681Z,2.60
2019-02-06T20:41:13.030Z,2.70
2019-02-06T20:43:39.068Z,2.60
2019-02-06T20:46:05.125Z,2.60
2019-02-06T20:48:31.209Z,2.70
2019-02-06T20:50:57.302Z,2.80
2019-02-06T20:53:23.363Z,2.80
2019-02-06T20:55:49.425Z,2.90
2019-02-06T20:58:15.464Z,3.00
2019-02-06T21:00:41.507Z,3.00
2019-02-06T21:03:08.287Z,2.70
2019-02-06T21:05:34.398Z,2.70
2019-02-06T21:08:00.659Z,2.50
2019-02-06T21:10:29.544Z,2.20
2019-02-06T21:12:55.579Z,2.10
2019-02-06T21:15:21.814Z,2.20
2019-02-06T21:17:47.962Z,2.30
2019-02-06T21:20:15.630Z,2.60
2019-02-06T21:22:42.912Z,2.60
2019-02-06T21:25:09.640Z,2.70
2019-02-06T21:27:41.641Z,2.80
2019-02-06T21:30:16.931Z,2.80
2019-02-06T21:32:42.954Z,2.80
2019-02-06T21:35:08.991Z,2.80
2019-02-06T21:37:35.018Z,2.70
2019-02-06T21:40:01.057Z,2.70
2019-02-06T21:42:27.100Z,2.80
2019-02-06T21:44:53.866Z,2.70
2019-02-06T21:47:19.899Z,2.70
2019-02-06T21:49:45.941Z,2.80
2019-02-06T21:52:14.043Z,2.80
2019-02-06T21:54:40.110Z,2.70
2019-02-06T21:57:06.187Z,2.70
2019-02-06T21:59:32.975Z,2.60
2019-02-06T22:01:59.008Z,2.60
2019-02-06T22:04:25.035Z,2.60
2019-02-06T22:06:51.103Z,2.60
2019-02-06T22:09:17.153Z,2.60
2019-02-06T22:11:43.939Z,2.60
2019-02-06T22:14:09.987Z,2.60
2019-02-06T22:16:36.120Z,2.60
2019-02-06T22:19:02.194Z,2.60
2019-02-06T22:21:28.260Z,2.60
2019-02-06T22:23:55.534Z,2.60
2019-02-06T22:26:22.455Z,2.60
2019-02-06T22:28:48.482Z,2.50
2019-02-06T22:31:14.535Z,2.50
2019-02-06T22:33:41.424Z,2.50
2019-02-06T22:36:07.404Z,2.50
2019-02-06T22:38:34.249Z,2.10
2019-02-06T22:41:01.047Z,1.80
2019-02-06T22:43:27.198Z,1.80
2019-02-06T22:45:53.246Z,1.80
2019-02-06T22:48:20.043Z,1.70
2019-02-06T22:50:46.076Z,1.80
2019-02-06T22:53:12.222Z,1.80
2019-02-06T22:55:38.240Z,1.90
2019-02-06T22:58:04.365Z,2.00
2019-02-06T23:00:52.318Z,2.10
2019-02-06T23:03:21.194Z,2.40
2019-02-06T23:05:47.265Z,2.40
2019-02-06T23:08:13.345Z,2.30
2019-02-06T23:10:39.379Z,2.00
2019-02-06T23:13:06.214Z,1.70
2019-02-06T23:15:33.019Z,1.70
2019-02-06T23:17:59.069Z,1.70
2019-02-06T23:20:25.107Z,1.80
2019-02-06T23:22:51.239Z,1.70
2019-02-06T23:25:18.287Z,1.40
2019-02-06T23:27:45.075Z,1.20
2019-02-06T23:30:12.019Z,1.20
2019-02-06T23:32:38.112Z,1.50
2019-02-06T23:35:04.132Z,1.60
2019-02-06T23:37:30.903Z,2.00
2019-02-06T23:39:56.937Z,1.90
2019-02-06T23:42:23.029Z,2.00
2019-02-06T23:44:49.812Z,2.10
2019-02-06T23:47:15.829Z,2.10
2019-02-06T23:49:41.884Z,2.20
2019-02-06T23:52:07.932Z,2.20
2019-02-06T23:54:34.694Z,2.20
2019-02-06T23:57:00.711Z,2.20
2019-02-06T23:59:26.743Z,2.20
